Terminal Aerodrome Forecast
Issued by NWS

Home | Current Version | Previous Version | Text Only | Print | Product List | Glossary On
Versions: 1 2 3 4 5 6 7 8 9 10 11 12 13 14 15 16
000
FTUS41 KCAR 041120
TAFHUL
TAF
KHUL 041120Z 0412/0512 20005KT 5SM BR FEW006 OVC100
     FM041300 20005KT P6SM BKN100
     FM041500 21006KT P6SM BKN080
     FM041900 19007KT P6SM VCTS BKN080CB
     FM042100 19007KT 3SM +TSRA BKN050CB
     FM050100 19005KT P6SM BKN120=

USA.gov is the U.S. government's official web portal to all federal, state and local government web resources and services.